sensor_id;sensor_type;location;lat;lon;timestamp;P1;durP1;ratioP1;P2;durP2;ratioP2
61572;SDS011;47465;43.094;12.434;2022-11-20T00:00:11;8.48;;;3.00;;
61572;SDS011;47465;43.094;12.434;2022-11-20T00:02:38;3.80;;;2.05;;
61572;SDS011;47465;43.094;12.434;2022-11-20T00:05:04;2.25;;;1.67;;
61572;SDS011;47465;43.094;12.434;2022-11-20T00:07:32;3.85;;;2.15;;
61572;SDS011;47465;43.094;12.434;2022-11-20T00:09:58;6.18;;;2.85;;
61572;SDS011;47465;43.094;12.434;2022-11-20T00:12:23;6.60;;;3.38;;
61572;SDS011;47465;43.094;12.434;2022-11-20T00:14:49;5.97;;;3.42;;
61572;SDS011;47465;43.094;12.434;2022-11-20T00:17:15;7.63;;;3.70;;
61572;SDS011;47465;43.094;12.434;2022-11-20T00:19:41;7.47;;;3.70;;
61572;SDS011;47465;43.094;12.434;2022-11-20T00:22:07;5.32;;;3.00;;
61572;SDS011;47465;43.094;12.434;2022-11-20T00:24:34;5.28;;;3.17;;
61572;SDS011;47465;43.094;12.434;2022-11-20T00:27:00;5.90;;;3.85;;
61572;SDS011;47465;43.094;12.434;2022-11-20T00:29:26;5.07;;;2.85;;
61572;SDS011;47465;43.094;12.434;2022-11-20T00:31:52;6.53;;;3.67;;
61572;SDS011;47465;43.094;12.434;2022-11-20T00:34:18;6.50;;;3.03;;
61572;SDS011;47465;43.094;12.434;2022-11-20T00:36:44;6.20;;;3.00;;
61572;SDS011;47465;43.094;12.434;2022-11-20T00:39:09;4.78;;;2.75;;
61572;SDS011;47465;43.094;12.434;2022-11-20T00:41:37;4.65;;;2.80;;
61572;SDS011;47465;43.094;12.434;2022-11-20T00:44:03;5.45;;;3.17;;
61572;SDS011;47465;43.094;12.434;2022-11-20T00:46:29;5.25;;;3.60;;
61572;SDS011;47465;43.094;12.434;2022-11-20T00:48:55;5.25;;;3.83;;
61572;SDS011;47465;43.094;12.434;2022-11-20T00:51:21;6.35;;;4.40;;
61572;SDS011;47465;43.094;12.434;2022-11-20T00:53:48;6.93;;;4.45;;
61572;SDS011;47465;43.094;12.434;2022-11-20T00:56:15;6.25;;;3.92;;
61572;SDS011;47465;43.094;12.434;2022-11-20T00:58:44;6.03;;;3.85;;
61572;SDS011;47465;43.094;12.434;2022-11-20T01:01:12;5.18;;;3.88;;
61572;SDS011;47465;43.094;12.434;2022-11-20T01:03:40;5.25;;;3.65;;
61572;SDS011;47465;43.094;12.434;2022-11-20T01:06:09;4.97;;;3.60;;
61572;SDS011;47465;43.094;12.434;2022-11-20T01:08:37;5.25;;;3.38;;
61572;SDS011;47465;43.094;12.434;2022-11-20T01:11:05;5.47;;;3.40;;
61572;SDS011;47465;43.094;12.434;2022-11-20T01:13:33;5.00;;;3.42;;
61572;SDS011;47465;43.094;12.434;2022-11-20T01:16:04;6.88;;;3.80;;
61572;SDS011;47465;43.094;12.434;2022-11-20T01:18:32;5.15;;;3.72;;
61572;SDS011;47465;43.094;12.434;2022-11-20T01:21:03;6.45;;;3.60;;
61572;SDS011;47465;43.094;12.434;2022-11-20T01:23:31;5.05;;;3.60;;
61572;SDS011;47465;43.094;12.434;2022-11-20T01:25:59;6.13;;;4.03;;
61572;SDS011;47465;43.094;12.434;2022-11-20T01:28:26;6.30;;;3.83;;
61572;SDS011;47465;43.094;12.434;2022-11-20T01:30:52;5.35;;;3.90;;
61572;SDS011;47465;43.094;12.434;2022-11-20T01:33:19;5.97;;;4.03;;
61572;SDS011;47465;43.094;12.434;2022-11-20T01:35:45;5.88;;;4.20;;
61572;SDS011;47465;43.094;12.434;2022-11-20T01:38:11;6.35;;;3.97;;
61572;SDS011;47465;43.094;12.434;2022-11-20T01:40:37;6.85;;;4.45;;
61572;SDS011;47465;43.094;12.434;2022-11-20T01:43:09;6.90;;;4.38;;
61572;SDS011;47465;43.094;12.434;2022-11-20T01:45:59;6.65;;;4.80;;
61572;SDS011;47465;43.094;12.434;2022-11-20T01:48:31;7.72;;;4.80;;
61572;SDS011;47465;43.094;12.434;2022-11-20T01:51:01;7.25;;;4.40;;
61572;SDS011;47465;43.094;12.434;2022-11-20T01:53:29;6.70;;;4.32;;
61572;SDS011;47465;43.094;12.434;2022-11-20T01:55:57;7.05;;;4.43;;
61572;SDS011;47465;43.094;12.434;2022-11-20T01:58:28;5.75;;;4.20;;
61572;SDS011;47465;43.094;12.434;2022-11-20T02:00:57;6.40;;;4.20;;
61572;SDS011;47465;43.094;12.434;2022-11-20T02:03:24;6.57;;;4.30;;
61572;SDS011;47465;43.094;12.434;2022-11-20T02:05:53;6.20;;;4.50;;
61572;SDS011;47465;43.094;12.434;2022-11-20T02:08:23;6.00;;;3.67;;
61572;SDS011;47465;43.094;12.434;2022-11-20T02:10:49;5.40;;;3.83;;
61572;SDS011;47465;43.094;12.434;2022-11-20T02:13:15;5.00;;;3.20;;
61572;SDS011;47465;43.094;12.434;2022-11-20T02:16:18;4.30;;;3.00;;
61572;SDS011;47465;43.094;12.434;2022-11-20T02:18:46;7.22;;;3.20;;
61572;SDS011;47465;43.094;12.434;2022-11-20T02:21:21;5.38;;;3.30;;
61572;SDS011;47465;43.094;12.434;2022-11-20T02:24:04;5.78;;;3.60;;
61572;SDS011;47465;43.094;12.434;2022-11-20T02:26:33;5.10;;;3.67;;
61572;SDS011;47465;43.094;12.434;2022-11-20T02:29:03;6.40;;;3.20;;
61572;SDS011;47465;43.094;12.434;2022-11-20T02:31:33;6.00;;;3.30;;
61572;SDS011;47465;43.094;12.434;2022-11-20T02:34:01;4.28;;;3.00;;
61572;SDS011;47465;43.094;12.434;2022-11-20T02:36:27;4.55;;;2.95;;
61572;SDS011;47465;43.094;12.434;2022-11-20T02:38:56;5.43;;;3.03;;
61572;SDS011;47465;43.094;12.434;2022-11-20T02:41:29;4.50;;;3.10;;
61572;SDS011;47465;43.094;12.434;2022-11-20T02:43:56;4.35;;;3.05;;
61572;SDS011;47465;43.094;12.434;2022-11-20T02:46:22;4.22;;;2.78;;
61572;SDS011;47465;43.094;12.434;2022-11-20T02:48:48;4.38;;;2.60;;
61572;SDS011;47465;43.094;12.434;2022-11-20T02:51:14;4.38;;;2.72;;
61572;SDS011;47465;43.094;12.434;2022-11-20T02:53:39;4.00;;;2.53;;
61572;SDS011;47465;43.094;12.434;2022-11-20T02:56:06;5.70;;;2.90;;
61572;SDS011;47465;43.094;12.434;2022-11-20T02:58:34;5.07;;;2.90;;
61572;SDS011;47465;43.094;12.434;2022-11-20T03:00:59;4.45;;;2.88;;
61572;SDS011;47465;43.094;12.434;2022-11-20T03:03:25;4.05;;;2.60;;
61572;SDS011;47465;43.094;12.434;2022-11-20T03:05:51;4.03;;;2.55;;
61572;SDS011;47465;43.094;12.434;2022-11-20T03:08:17;3.65;;;2.70;;
61572;SDS011;47465;43.094;12.434;2022-11-20T03:10:43;5.00;;;2.88;;
61572;SDS011;47465;43.094;12.434;2022-11-20T03:13:09;5.30;;;3.40;;
61572;SDS011;47465;43.094;12.434;2022-11-20T03:15:37;5.35;;;3.38;;
61572;SDS011;47465;43.094;12.434;2022-11-20T03:18:03;4.78;;;3.17;;
61572;SDS011;47465;43.094;12.434;2022-11-20T03:20:29;5.47;;;3.28;;
61572;SDS011;47465;43.094;12.434;2022-11-20T03:22:55;5.20;;;3.70;;
61572;SDS011;47465;43.094;12.434;2022-11-20T03:25:21;5.90;;;4.18;;
61572;SDS011;47465;43.094;12.434;2022-11-20T03:27:47;6.22;;;4.15;;
61572;SDS011;47465;43.094;12.434;2022-11-20T03:30:13;6.57;;;4.38;;
61572;SDS011;47465;43.094;12.434;2022-11-20T03:32:41;6.95;;;4.20;;
61572;SDS011;47465;43.094;12.434;2022-11-20T03:35:08;6.10;;;4.40;;
61572;SDS011;47465;43.094;12.434;2022-11-20T03:37:34;5.50;;;3.72;;
61572;SDS011;47465;43.094;12.434;2022-11-20T03:40:00;7.00;;;5.28;;
61572;SDS011;47465;43.094;12.434;2022-11-20T03:42:26;8.55;;;5.47;;
61572;SDS011;47465;43.094;12.434;2022-11-20T03:45:47;8.25;;;4.97;;
61572;SDS011;47465;43.094;12.434;2022-11-20T03:48:12;7.57;;;4.80;;
61572;SDS011;47465;43.094;12.434;2022-11-20T03:50:38;7.88;;;5.20;;
61572;SDS011;47465;43.094;12.434;2022-11-20T03:53:04;8.90;;;5.47;;
61572;SDS011;47465;43.094;12.434;2022-11-20T03:55:30;7.95;;;4.95;;
61572;SDS011;47465;43.094;12.434;2022-11-20T03:57:56;7.05;;;4.30;;
61572;SDS011;47465;43.094;12.434;2022-11-20T04:00:22;6.22;;;4.10;;
61572;SDS011;47465;43.094;12.434;2022-11-20T04:02:49;5.78;;;3.88;;
61572;SDS011;47465;43.094;12.434;2022-11-20T04:05:16;7.32;;;4.00;;
61572;SDS011;47465;43.094;12.434;2022-11-20T04:07:41;5.30;;;3.50;;
61572;SDS011;47465;43.094;12.434;2022-11-20T04:10:08;6.15;;;3.20;;
61572;SDS011;47465;43.094;12.434;2022-11-20T04:12:34;4.75;;;3.20;;
61572;SDS011;47465;43.094;12.434;2022-11-20T04:15:00;6.03;;;3.15;;
61572;SDS011;47465;43.094;12.434;2022-11-20T04:17:28;4.50;;;3.00;;
61572;SDS011;47465;43.094;12.434;2022-11-20T04:19:55;4.97;;;2.88;;
61572;SDS011;47465;43.094;12.434;2022-11-20T04:22:21;4.40;;;2.80;;
61572;SDS011;47465;43.094;12.434;2022-11-20T04:24:47;3.90;;;2.67;;
61572;SDS011;47465;43.094;12.434;2022-11-20T04:27:13;4.72;;;2.63;;
61572;SDS011;47465;43.094;12.434;2022-11-20T04:29:39;3.83;;;2.20;;
61572;SDS011;47465;43.094;12.434;2022-11-20T04:32:05;2.75;;;1.95;;
61572;SDS011;47465;43.094;12.434;2022-11-20T04:34:31;3.33;;;1.83;;
61572;SDS011;47465;43.094;12.434;2022-11-20T04:36:59;3.00;;;1.70;;
61572;SDS011;47465;43.094;12.434;2022-11-20T04:39:25;2.80;;;1.92;;
61572;SDS011;47465;43.094;12.434;2022-11-20T04:41:51;3.20;;;2.25;;
61572;SDS011;47465;43.094;12.434;2022-11-20T04:44:36;2.65;;;1.63;;
61572;SDS011;47465;43.094;12.434;2022-11-20T04:47:02;3.65;;;2.00;;
61572;SDS011;47465;43.094;12.434;2022-11-20T04:49:28;2.22;;;1.75;;
61572;SDS011;47465;43.094;12.434;2022-11-20T04:51:54;2.95;;;1.95;;
61572;SDS011;47465;43.094;12.434;2022-11-20T04:54:22;4.13;;;2.22;;
61572;SDS011;47465;43.094;12.434;2022-11-20T04:56:48;3.97;;;2.63;;
61572;SDS011;47465;43.094;12.434;2022-11-20T04:59:14;3.67;;;2.50;;
61572;SDS011;47465;43.094;12.434;2022-11-20T05:01:40;5.63;;;3.22;;
61572;SDS011;47465;43.094;12.434;2022-11-20T05:04:06;4.45;;;2.90;;
61572;SDS011;47465;43.094;12.434;2022-11-20T05:06:32;4.82;;;3.10;;
61572;SDS011;47465;43.094;12.434;2022-11-20T05:08:58;5.15;;;3.33;;
61572;SDS011;47465;43.094;12.434;2022-11-20T05:11:27;5.97;;;2.90;;
61572;SDS011;47465;43.094;12.434;2022-11-20T05:13:54;4.95;;;3.15;;
61572;SDS011;47465;43.094;12.434;2022-11-20T05:16:21;3.80;;;2.58;;
61572;SDS011;47465;43.094;12.434;2022-11-20T05:18:48;6.18;;;2.50;;
61572;SDS011;47465;43.094;12.434;2022-11-20T05:21:15;3.80;;;2.58;;
61572;SDS011;47465;43.094;12.434;2022-11-20T05:23:42;3.40;;;2.40;;
61572;SDS011;47465;43.094;12.434;2022-11-20T05:26:12;4.97;;;2.33;;
61572;SDS011;47465;43.094;12.434;2022-11-20T05:28:42;3.90;;;2.35;;
61572;SDS011;47465;43.094;12.434;2022-11-20T05:31:09;3.72;;;2.30;;
61572;SDS011;47465;43.094;12.434;2022-11-20T05:33:36;3.03;;;2.20;;
61572;SDS011;47465;43.094;12.434;2022-11-20T05:36:05;3.93;;;2.53;;
61572;SDS011;47465;43.094;12.434;2022-11-20T05:38:31;4.68;;;3.00;;
61572;SDS011;47465;43.094;12.434;2022-11-20T05:41:02;4.65;;;2.92;;
61572;SDS011;47465;43.094;12.434;2022-11-20T05:43:31;3.55;;;2.30;;
61572;SDS011;47465;43.094;12.434;2022-11-20T05:45:59;4.00;;;2.42;;
61572;SDS011;47465;43.094;12.434;2022-11-20T05:48:25;4.30;;;2.60;;
61572;SDS011;47465;43.094;12.434;2022-11-20T05:50:51;4.32;;;2.38;;
61572;SDS011;47465;43.094;12.434;2022-11-20T05:53:17;3.08;;;2.17;;
61572;SDS011;47465;43.094;12.434;2022-11-20T05:55:43;4.57;;;2.38;;
61572;SDS011;47465;43.094;12.434;2022-11-20T05:58:09;4.45;;;2.25;;
61572;SDS011;47465;43.094;12.434;2022-11-20T06:00:35;6.13;;;2.60;;
61572;SDS011;47465;43.094;12.434;2022-11-20T06:03:02;4.05;;;2.58;;
61572;SDS011;47465;43.094;12.434;2022-11-20T06:05:28;3.28;;;2.30;;
61572;SDS011;47465;43.094;12.434;2022-11-20T06:07:54;3.63;;;2.38;;
61572;SDS011;47465;43.094;12.434;2022-11-20T06:10:20;4.13;;;2.35;;
61572;SDS011;47465;43.094;12.434;2022-11-20T06:12:46;4.20;;;2.35;;
61572;SDS011;47465;43.094;12.434;2022-11-20T06:15:12;3.28;;;2.20;;
61572;SDS011;47465;43.094;12.434;2022-11-20T06:17:38;3.67;;;1.98;;
61572;SDS011;47465;43.094;12.434;2022-11-20T06:20:06;3.80;;;2.08;;
61572;SDS011;47465;43.094;12.434;2022-11-20T06:22:32;4.22;;;2.13;;
61572;SDS011;47465;43.094;12.434;2022-11-20T06:24:58;4.05;;;2.40;;
61572;SDS011;47465;43.094;12.434;2022-11-20T06:27:24;2.75;;;2.10;;
61572;SDS011;47465;43.094;12.434;2022-11-20T06:29:50;2.95;;;1.92;;
61572;SDS011;47465;43.094;12.434;2022-11-20T06:32:16;4.85;;;2.22;;
61572;SDS011;47465;43.094;12.434;2022-11-20T06:34:42;3.53;;;1.90;;
61572;SDS011;47465;43.094;12.434;2022-11-20T06:37:10;3.95;;;2.10;;
61572;SDS011;47465;43.094;12.434;2022-11-20T06:39:36;3.40;;;2.30;;
61572;SDS011;47465;43.094;12.434;2022-11-20T06:42:02;4.53;;;2.40;;
61572;SDS011;47465;43.094;12.434;2022-11-20T06:44:28;3.70;;;2.42;;
61572;SDS011;47465;43.094;12.434;2022-11-20T06:46:54;3.75;;;2.40;;
61572;SDS011;47465;43.094;12.434;2022-11-20T06:49:20;4.32;;;2.20;;
61572;SDS011;47465;43.094;12.434;2022-11-20T06:51:46;5.00;;;2.80;;
61572;SDS011;47465;43.094;12.434;2022-11-20T06:54:13;4.72;;;2.70;;
61572;SDS011;47465;43.094;12.434;2022-11-20T06:56:39;4.63;;;2.58;;
61572;SDS011;47465;43.094;12.434;2022-11-20T06:59:05;7.53;;;4.90;;
61572;SDS011;47465;43.094;12.434;2022-11-20T07:01:32;6.80;;;4.75;;
61572;SDS011;47465;43.094;12.434;2022-11-20T07:03:58;5.63;;;4.05;;
61572;SDS011;47465;43.094;12.434;2022-11-20T07:06:24;5.93;;;3.35;;
61572;SDS011;47465;43.094;12.434;2022-11-20T07:08:50;5.45;;;3.15;;
61572;SDS011;47465;43.094;12.434;2022-11-20T07:11:19;4.10;;;2.83;;
61572;SDS011;47465;43.094;12.434;2022-11-20T07:13:46;3.45;;;2.22;;
61572;SDS011;47465;43.094;12.434;2022-11-20T07:16:12;3.97;;;2.20;;
61572;SDS011;47465;43.094;12.434;2022-11-20T07:18:38;4.78;;;2.20;;
61572;SDS011;47465;43.094;12.434;2022-11-20T07:21:05;2.85;;;2.00;;
61572;SDS011;47465;43.094;12.434;2022-11-20T07:23:33;4.00;;;2.30;;
61572;SDS011;47465;43.094;12.434;2022-11-20T07:26:02;3.55;;;2.30;;
61572;SDS011;47465;43.094;12.434;2022-11-20T07:28:32;4.13;;;2.38;;
61572;SDS011;47465;43.094;12.434;2022-11-20T07:31:01;4.95;;;2.58;;
61572;SDS011;47465;43.094;12.434;2022-11-20T07:33:27;8.50;;;3.20;;
61572;SDS011;47465;43.094;12.434;2022-11-20T07:35:54;9.38;;;5.15;;
61572;SDS011;47465;43.094;12.434;2022-11-20T07:38:20;8.82;;;6.03;;
61572;SDS011;47465;43.094;12.434;2022-11-20T07:40:46;11.07;;;7.80;;
61572;SDS011;47465;43.094;12.434;2022-11-20T07:43:13;11.27;;;7.38;;
61572;SDS011;47465;43.094;12.434;2022-11-20T07:45:41;12.52;;;8.00;;
61572;SDS011;47465;43.094;12.434;2022-11-20T07:48:08;12.63;;;8.32;;
61572;SDS011;47465;43.094;12.434;2022-11-20T07:50:33;12.27;;;7.18;;
61572;SDS011;47465;43.094;12.434;2022-11-20T07:53:00;9.45;;;6.40;;
61572;SDS011;47465;43.094;12.434;2022-11-20T07:55:27;10.05;;;6.68;;
61572;SDS011;47465;43.094;12.434;2022-11-20T07:57:54;7.50;;;5.82;;
61572;SDS011;47465;43.094;12.434;2022-11-20T08:00:21;8.63;;;6.30;;
61572;SDS011;47465;43.094;12.434;2022-11-20T08:02:49;10.60;;;7.13;;
61572;SDS011;47465;43.094;12.434;2022-11-20T08:05:15;15.35;;;9.32;;
61572;SDS011;47465;43.094;12.434;2022-11-20T08:07:42;12.73;;;8.30;;
61572;SDS011;47465;43.094;12.434;2022-11-20T08:10:10;12.88;;;8.68;;
61572;SDS011;47465;43.094;12.434;2022-11-20T08:13:08;8.68;;;6.80;;
61572;SDS011;47465;43.094;12.434;2022-11-20T08:16:48;11.32;;;6.90;;
61572;SDS011;47465;43.094;12.434;2022-11-20T08:19:41;8.95;;;6.22;;
61572;SDS011;47465;43.094;12.434;2022-11-20T08:22:10;6.78;;;5.40;;
61572;SDS011;47465;43.094;12.434;2022-11-20T08:24:39;6.20;;;5.00;;
61572;SDS011;47465;43.094;12.434;2022-11-20T08:27:11;7.20;;;5.28;;
61572;SDS011;47465;43.094;12.434;2022-11-20T08:29:42;10.05;;;6.53;;
61572;SDS011;47465;43.094;12.434;2022-11-20T08:32:13;12.48;;;7.93;;
61572;SDS011;47465;43.094;12.434;2022-11-20T08:34:48;8.95;;;6.35;;
61572;SDS011;47465;43.094;12.434;2022-11-20T08:37:14;12.02;;;8.25;;
61572;SDS011;47465;43.094;12.434;2022-11-20T08:39:40;16.70;;;9.43;;
61572;SDS011;47465;43.094;12.434;2022-11-20T08:42:12;13.23;;;8.93;;
61572;SDS011;47465;43.094;12.434;2022-11-20T08:44:38;12.77;;;8.88;;
61572;SDS011;47465;43.094;12.434;2022-11-20T08:47:05;14.25;;;9.63;;
61572;SDS011;47465;43.094;12.434;2022-11-20T08:49:31;11.50;;;7.78;;
61572;SDS011;47465;43.094;12.434;2022-11-20T08:51:59;12.15;;;8.00;;
61572;SDS011;47465;43.094;12.434;2022-11-20T08:54:25;10.98;;;7.82;;
61572;SDS011;47465;43.094;12.434;2022-11-20T08:57:13;11.52;;;7.88;;
61572;SDS011;47465;43.094;12.434;2022-11-20T08:59:45;11.27;;;7.60;;
61572;SDS011;47465;43.094;12.434;2022-11-20T09:02:15;9.38;;;7.40;;
61572;SDS011;47465;43.094;12.434;2022-11-20T09:04:41;12.02;;;7.72;;
61572;SDS011;47465;43.094;12.434;2022-11-20T09:07:12;10.27;;;6.10;;
61572;SDS011;47465;43.094;12.434;2022-11-20T09:09:41;9.98;;;6.80;;
61572;SDS011;47465;43.094;12.434;2022-11-20T09:12:12;6.30;;;4.13;;
61572;SDS011;47465;43.094;12.434;2022-11-20T09:14:39;5.57;;;3.55;;
61572;SDS011;47465;43.094;12.434;2022-11-20T09:17:08;5.32;;;3.22;;
61572;SDS011;47465;43.094;12.434;2022-11-20T09:19:41;3.72;;;2.40;;
61572;SDS011;47465;43.094;12.434;2022-11-20T09:22:07;5.25;;;2.60;;
61572;SDS011;47465;43.094;12.434;2022-11-20T09:24:36;4.10;;;2.40;;
61572;SDS011;47465;43.094;12.434;2022-11-20T09:27:08;5.85;;;2.90;;
61572;SDS011;47465;43.094;12.434;2022-11-20T09:29:35;3.80;;;2.50;;
61572;SDS011;47465;43.094;12.434;2022-11-20T09:32:01;7.00;;;2.42;;
61572;SDS011;47465;43.094;12.434;2022-11-20T09:34:27;2.72;;;2.08;;
61572;SDS011;47465;43.094;12.434;2022-11-20T09:36:53;4.15;;;2.30;;
61572;SDS011;47465;43.094;12.434;2022-11-20T09:44:48;3.85;;;2.15;;
61572;SDS011;47465;43.094;12.434;2022-11-20T09:47:23;3.25;;;1.95;;
61572;SDS011;47465;43.094;12.434;2022-11-20T09:49:59;2.70;;;1.85;;
61572;SDS011;47465;43.094;12.434;2022-11-20T09:52:41;2.67;;;2.05;;
61572;SDS011;47465;43.094;12.434;2022-11-20T09:55:17;2.95;;;2.10;;
61572;SDS011;47465;43.094;12.434;2022-11-20T09:57:46;2.55;;;2.00;;
61572;SDS011;47465;43.094;12.434;2022-11-20T10:00:16;2.05;;;1.80;;
61572;SDS011;47465;43.094;12.434;2022-11-20T10:02:45;2.40;;;1.90;;
61572;SDS011;47465;43.094;12.434;2022-11-20T10:05:18;2.63;;;2.15;;
61572;SDS011;47465;43.094;12.434;2022-11-20T10:07:47;2.83;;;2.05;;
61572;SDS011;47465;43.094;12.434;2022-11-20T10:10:22;2.85;;;2.00;;
61572;SDS011;47465;43.094;12.434;2022-11-20T10:13:02;3.13;;;2.00;;
61572;SDS011;47465;43.094;12.434;2022-11-20T10:15:44;3.05;;;1.88;;
61572;SDS011;47465;43.094;12.434;2022-11-20T10:18:23;2.30;;;1.93;;
61572;SDS011;47465;43.094;12.434;2022-11-20T10:21:02;2.75;;;1.95;;
61572;SDS011;47465;43.094;12.434;2022-11-20T10:23:45;2.55;;;1.80;;
61572;SDS011;47465;43.094;12.434;2022-11-20T10:26:26;3.92;;;2.00;;
61572;SDS011;47465;43.094;12.434;2022-11-20T10:29:09;3.78;;;2.00;;
61572;SDS011;47465;43.094;12.434;2022-11-20T10:31:38;3.13;;;1.85;;
61572;SDS011;47465;43.094;12.434;2022-11-20T10:34:07;2.90;;;2.20;;
61572;SDS011;47465;43.094;12.434;2022-11-20T10:36:44;3.60;;;2.03;;
61572;SDS011;47465;43.094;12.434;2022-11-20T10:39:16;3.22;;;1.98;;
61572;SDS011;47465;43.094;12.434;2022-11-20T10:41:49;2.15;;;1.90;;
61572;SDS011;47465;43.094;12.434;2022-11-20T10:44:21;2.42;;;1.98;;
61572;SDS011;47465;43.094;12.434;2022-11-20T10:47:28;2.50;;;1.95;;
61572;SDS011;47465;43.094;12.434;2022-11-20T10:50:03;2.25;;;1.77;;
61572;SDS011;47465;43.094;12.434;2022-11-20T10:52:36;4.43;;;2.00;;
61572;SDS011;47465;43.094;12.434;2022-11-20T10:55:14;3.38;;;1.98;;
61572;SDS011;47465;43.094;12.434;2022-11-20T11:00:20;2.25;;;1.88;;
61572;SDS011;47465;43.094;12.434;2022-11-20T11:02:48;2.97;;;1.92;;
61572;SDS011;47465;43.094;12.434;2022-11-20T11:05:27;2.58;;;1.90;;
61572;SDS011;47465;43.094;12.434;2022-11-20T11:08:02;2.58;;;2.20;;
61572;SDS011;47465;43.094;12.434;2022-11-20T11:10:32;2.70;;;1.88;;
61572;SDS011;47465;43.094;12.434;2022-11-20T11:13:07;3.55;;;2.10;;
61572;SDS011;47465;43.094;12.434;2022-11-20T11:15:44;2.22;;;1.80;;
61572;SDS011;47465;43.094;12.434;2022-11-20T11:18:22;11.05;;;7.88;;
61572;SDS011;47465;43.094;12.434;2022-11-20T11:20:49;3.03;;;2.00;;
61572;SDS011;47465;43.094;12.434;2022-11-20T11:23:22;3.03;;;1.90;;
61572;SDS011;47465;43.094;12.434;2022-11-20T11:25:56;3.03;;;1.92;;
61572;SDS011;47465;43.094;12.434;2022-11-20T11:28:24;3.45;;;2.17;;
61572;SDS011;47465;43.094;12.434;2022-11-20T11:30:52;2.22;;;1.80;;
61572;SDS011;47465;43.094;12.434;2022-11-20T11:33:22;4.00;;;2.10;;
61572;SDS011;47465;43.094;12.434;2022-11-20T11:35:50;2.53;;;2.00;;
61572;SDS011;47465;43.094;12.434;2022-11-20T11:38:19;2.42;;;1.90;;
61572;SDS011;47465;43.094;12.434;2022-11-20T11:40:49;2.38;;;1.80;;
61572;SDS011;47465;43.094;12.434;2022-11-20T11:43:19;8.60;;;2.40;;
61572;SDS011;47465;43.094;12.434;2022-11-20T11:56:47;4.30;;;2.53;;
61572;SDS011;47465;43.094;12.434;2022-11-20T11:59:17;4.78;;;2.72;;
61572;SDS011;47465;43.094;12.434;2022-11-20T12:01:57;4.10;;;2.70;;
61572;SDS011;47465;43.094;12.434;2022-11-20T12:04:37;4.20;;;2.90;;
61572;SDS011;47465;43.094;12.434;2022-11-20T12:07:11;2.05;;;1.75;;
61572;SDS011;47465;43.094;12.434;2022-11-20T12:09:43;2.47;;;1.80;;
61572;SDS011;47465;43.094;12.434;2022-11-20T12:12:19;5.57;;;2.90;;
61572;SDS011;47465;43.094;12.434;2022-11-20T12:14:50;12.85;;;7.57;;
61572;SDS011;47465;43.094;12.434;2022-11-20T12:17:20;12.90;;;7.15;;
61572;SDS011;47465;43.094;12.434;2022-11-20T12:19:47;8.85;;;5.43;;
61572;SDS011;47465;43.094;12.434;2022-11-20T12:22:16;5.20;;;3.70;;
61572;SDS011;47465;43.094;12.434;2022-11-20T12:24:50;8.13;;;4.82;;
61572;SDS011;47465;43.094;12.434;2022-11-20T12:27:39;2.95;;;2.20;;
61572;SDS011;47465;43.094;12.434;2022-11-20T12:30:17;4.88;;;2.95;;
61572;SDS011;47465;43.094;12.434;2022-11-20T12:32:58;5.77;;;3.60;;
61572;SDS011;47465;43.094;12.434;2022-11-20T12:41:43;3.65;;;2.63;;
61572;SDS011;47465;43.094;12.434;2022-11-20T12:44:57;4.50;;;2.33;;
61572;SDS011;47465;43.094;12.434;2022-11-20T12:47:59;3.88;;;2.90;;
61572;SDS011;47465;43.094;12.434;2022-11-20T12:50:42;4.47;;;2.40;;
61572;SDS011;47465;43.094;12.434;2022-11-20T12:53:19;5.03;;;2.70;;
61572;SDS011;47465;43.094;12.434;2022-11-20T12:55:55;5.97;;;2.83;;
61572;SDS011;47465;43.094;12.434;2022-11-20T12:58:27;3.63;;;2.60;;
61572;SDS011;47465;43.094;12.434;2022-11-20T13:01:06;3.08;;;2.00;;
61572;SDS011;47465;43.094;12.434;2022-11-20T13:04:06;2.17;;;1.80;;
61572;SDS011;47465;43.094;12.434;2022-11-20T13:06:39;2.03;;;1.70;;
61572;SDS011;47465;43.094;12.434;2022-11-20T13:09:13;3.35;;;1.83;;
61572;SDS011;47465;43.094;12.434;2022-11-20T13:11:43;5.68;;;3.38;;
61572;SDS011;47465;43.094;12.434;2022-11-20T13:14:19;2.95;;;2.08;;
61572;SDS011;47465;43.094;12.434;2022-11-20T13:16:53;7.18;;;3.50;;
61572;SDS011;47465;43.094;12.434;2022-11-20T13:19:24;10.68;;;6.20;;
61572;SDS011;47465;43.094;12.434;2022-11-20T13:21:50;2.95;;;1.98;;
61572;SDS011;47465;43.094;12.434;2022-11-20T13:24:20;3.28;;;2.15;;
61572;SDS011;47465;43.094;12.434;2022-11-20T13:27:02;3.30;;;1.80;;
61572;SDS011;47465;43.094;12.434;2022-11-20T13:29:44;3.70;;;1.92;;
61572;SDS011;47465;43.094;12.434;2022-11-20T13:32:14;3.00;;;2.00;;
61572;SDS011;47465;43.094;12.434;2022-11-20T13:34:51;2.22;;;1.90;;
61572;SDS011;47465;43.094;12.434;2022-11-20T13:37:24;3.47;;;2.03;;
61572;SDS011;47465;43.094;12.434;2022-11-20T13:39:53;3.55;;;2.30;;
61572;SDS011;47465;43.094;12.434;2022-11-20T13:42:46;4.57;;;2.42;;
61572;SDS011;47465;43.094;12.434;2022-11-20T13:45:22;3.30;;;2.20;;
61572;SDS011;47465;43.094;12.434;2022-11-20T13:47:51;4.50;;;2.00;;
61572;SDS011;47465;43.094;12.434;2022-11-20T13:50:18;5.30;;;2.80;;
61572;SDS011;47465;43.094;12.434;2022-11-20T13:52:48;3.78;;;2.33;;
61572;SDS011;47465;43.094;12.434;2022-11-20T13:55:22;4.38;;;2.15;;
61572;SDS011;47465;43.094;12.434;2022-11-20T13:57:57;4.95;;;3.00;;
61572;SDS011;47465;43.094;12.434;2022-11-20T14:00:41;6.70;;;2.85;;
61572;SDS011;47465;43.094;12.434;2022-11-20T14:03:13;5.32;;;2.92;;
61572;SDS011;47465;43.094;12.434;2022-11-20T14:05:46;2.38;;;1.73;;
61572;SDS011;47465;43.094;12.434;2022-11-20T14:08:19;5.22;;;2.28;;
61572;SDS011;47465;43.094;12.434;2022-11-20T14:10:51;4.55;;;2.78;;
61572;SDS011;47465;43.094;12.434;2022-11-20T14:13:28;6.25;;;3.97;;
61572;SDS011;47465;43.094;12.434;2022-11-20T14:15:56;11.93;;;4.28;;
61572;SDS011;47465;43.094;12.434;2022-11-20T14:18:25;5.93;;;3.85;;
61572;SDS011;47465;43.094;12.434;2022-11-20T14:20:52;5.82;;;2.92;;
61572;SDS011;47465;43.094;12.434;2022-11-20T14:23:23;4.57;;;2.85;;
61572;SDS011;47465;43.094;12.434;2022-11-20T14:25:50;5.70;;;2.90;;
61572;SDS011;47465;43.094;12.434;2022-11-20T14:28:19;4.10;;;2.50;;
61572;SDS011;47465;43.094;12.434;2022-11-20T14:30:50;10.45;;;5.43;;
61572;SDS011;47465;43.094;12.434;2022-11-20T14:33:16;8.25;;;3.90;;
61572;SDS011;47465;43.094;12.434;2022-11-20T14:35:45;5.95;;;3.05;;
61572;SDS011;47465;43.094;12.434;2022-11-20T14:38:14;6.65;;;2.72;;
61572;SDS011;47465;43.094;12.434;2022-11-20T14:40:42;4.07;;;3.05;;
61572;SDS011;47465;43.094;12.434;2022-11-20T14:43:16;4.97;;;2.65;;
61572;SDS011;47465;43.094;12.434;2022-11-20T14:45:44;2.95;;;1.80;;
61572;SDS011;47465;43.094;12.434;2022-11-20T14:48:14;4.10;;;1.90;;
61572;SDS011;47465;43.094;12.434;2022-11-20T14:50:41;5.22;;;2.72;;
61572;SDS011;47465;43.094;12.434;2022-11-20T14:53:09;3.35;;;1.98;;
61572;SDS011;47465;43.094;12.434;2022-11-20T14:55:35;3.15;;;2.10;;
61572;SDS011;47465;43.094;12.434;2022-11-20T14:58:03;4.25;;;2.30;;
61572;SDS011;47465;43.094;12.434;2022-11-20T15:00:31;3.05;;;2.20;;
61572;SDS011;47465;43.094;12.434;2022-11-20T15:02:58;3.10;;;1.90;;
61572;SDS011;47465;43.094;12.434;2022-11-20T15:05:47;5.35;;;2.00;;
61572;SDS011;47465;43.094;12.434;2022-11-20T15:08:16;3.35;;;2.10;;
61572;SDS011;47465;43.094;12.434;2022-11-20T15:10:46;3.83;;;2.42;;
61572;SDS011;47465;43.094;12.434;2022-11-20T15:13:14;3.50;;;2.25;;
61572;SDS011;47465;43.094;12.434;2022-11-20T15:15:46;2.53;;;1.98;;